Destin Fort Walton Beach Airport


Codes: KDTS/DSI
Name: Destin Fort Walton Beach Airport
City: Destin
Country: United States
Elevation: 23 ft.
Wikipedia:

Photos at Destin Fort Walton Beach Airport


   Photos courtesy of SpottingLog. You can add your own sightings and photos by signing up for a free trial today.



No photos found.

Weather at Destin Fort Walton Beach Airport


Time (UTC)DescriptionTempratureWindCloud coverageVisibilityPressureHumidity
15-Apr-2024 18:00Scattered Clouds23°C9 mph, S41%10000m1020hPa69%
15-Apr-2024 21:00Few Clouds23°C9 mph, S17%10000m1019hPa64%
16-Apr-2024 00:00Clear Sky20°C7 mph, S4%10000m1018hPa79%
16-Apr-2024 03:00Broken Clouds19°C7 mph, S58%10000m1019hPa88%
16-Apr-2024 06:00Broken Clouds19°C7 mph, S80%10000m1018hPa84%
16-Apr-2024 09:00Overcast Clouds19°C4 mph, SE100%10000m1018hPa81%
16-Apr-2024 12:00Overcast Clouds19°C4 mph, SE100%10000m1020hPa83%
16-Apr-2024 15:00Overcast Clouds21°C9 mph, SE100%10000m1021hPa72%
16-Apr-2024 18:00Overcast Clouds23°C11 mph, SE100%10000m1019hPa62%
16-Apr-2024 21:00Overcast Clouds22°C9 mph, SE100%10000m1018hPa66%
17-Apr-2024 00:00Overcast Clouds21°C9 mph, SE100%10000m1019hPa83%
17-Apr-2024 03:00Overcast Clouds20°C11 mph, SE100%10000m1019hPa86%
17-Apr-2024 06:00Overcast Clouds20°C9 mph, S100%10000m1018hPa91%
17-Apr-2024 09:00Overcast Clouds20°C7 mph, S100%10000m1017hPa91%
17-Apr-2024 12:00Overcast Clouds20°C9 mph, SE100%10000m1018hPa86%
17-Apr-2024 15:00Overcast Clouds23°C11 mph, SE100%10000m1019hPa74%
17-Apr-2024 18:00Overcast Clouds23°C11 mph, S100%10000m1019hPa74%
17-Apr-2024 21:00Overcast Clouds23°C11 mph, S95%10000m1018hPa78%
18-Apr-2024 00:00Overcast Clouds22°C7 mph, S98%10000m1018hPa89%
18-Apr-2024 03:00Overcast Clouds21°C9 mph, S100%10000m1018hPa91%
18-Apr-2024 06:00Overcast Clouds21°C2 mph, S100%10000m1017hPa94%
18-Apr-2024 09:00Overcast Clouds21°C2 mph, S100%10000m1017hPa92%
18-Apr-2024 12:00Overcast Clouds20°C2 mph, SE100%10000m1018hPa93%
18-Apr-2024 15:00Overcast Clouds23°C4 mph, SE100%10000m1019hPa78%
18-Apr-2024 18:00Overcast Clouds24°C9 mph, S88%10000m1018hPa71%
18-Apr-2024 21:00Overcast Clouds24°C9 mph, SW100%10000m1017hPa77%
19-Apr-2024 00:00Overcast Clouds22°C7 mph, SW100%10000m1018hPa89%
19-Apr-2024 03:00Overcast Clouds21°C9 mph, S100%10000m1016hPa90%
19-Apr-2024 06:00Overcast Clouds21°C7 mph, SW100%10000m1016hPa93%
19-Apr-2024 09:00Overcast Clouds21°C7 mph, SW99%10000m1016hPa92%
19-Apr-2024 12:00Overcast Clouds21°C7 mph, W98%10000m1018hPa92%
19-Apr-2024 15:00Overcast Clouds24°C2 mph, SW100%10000m1018hPa73%
19-Apr-2024 18:00Broken Clouds25°C11 mph, S82%10000m1017hPa68%
19-Apr-2024 21:00Scattered Clouds25°C9 mph, SW34%10000m1016hPa72%
20-Apr-2024 00:00Broken Clouds22°C9 mph, SW57%10000m1016hPa87%
20-Apr-2024 03:00Overcast Clouds21°C7 mph, SW93%10000m1016hPa93%
20-Apr-2024 06:00Overcast Clouds22°C11 mph, SW96%10000m1016hPa88%
20-Apr-2024 09:00Overcast Clouds21°C7 mph, W98%10000m1016hPa91%
20-Apr-2024 12:00Overcast Clouds21°C7 mph, NW99%10000m1016hPa88%
20-Apr-2024 15:00Overcast Clouds24°C2 mph, NW92%10000m1017hPa73%